Jinks, Kentucky
Current Conditions -  °F | °C
As of 6:15 PM on Wednesday 26 Nov 2014 (Local Time) from KI39 Reporting Station
Clear Clear  
Wind Chill: 39°   Ceiling: Unl
Heat Index: 39°   Visibility: 10mi
Dew Point: 28°   Wind: 0mph
Humidity: 65%   Direction: NA
Pressure: 30"   Gusts: NA
Location:  37.6427°N, 83.9998°W
Report Text: KI39 262315Z AUTO 00000KT 10SM CLR 04/M02 A3000 RMK AO2
Loading
Personal Weather Stations






























Interactive Weather Map New forecast layout! Learn more

10-Day Weather Forecast

Advertisements
Track Severe Weather on mobile